createdAt,value
2023-03-01T00:01:54.397Z,25.52
2023-03-01T00:04:23.427Z,21.58
2023-03-01T00:06:51.485Z,25.45
2023-03-01T00:09:19.852Z,20.10
2023-03-01T00:11:49.126Z,28.15
2023-03-01T00:14:18.612Z,25.10
2023-03-01T00:16:47.373Z,22.80
2023-03-01T00:19:19.295Z,26.25
2023-03-01T00:21:48.287Z,27.70
2023-03-01T00:24:17.081Z,30.02
2023-03-01T00:26:46.387Z,23.20
2023-03-01T00:29:15.076Z,21.20
2023-03-01T00:31:43.393Z,24.23
2023-03-01T00:34:12.334Z,24.38
2023-03-01T00:36:41.775Z,24.23
2023-03-01T00:39:14.146Z,25.80
2023-03-01T00:41:43.275Z,23.13
2023-03-01T00:44:11.713Z,21.88
2023-03-01T00:46:41.303Z,26.60
2023-03-01T00:49:09.620Z,24.23
2023-03-01T00:51:37.797Z,23.88
2023-03-01T00:54:07.874Z,26.27
2023-03-01T00:56:36.043Z,29.58
2023-03-01T00:59:04.447Z,24.63
2023-03-01T01:01:34.357Z,25.02
2023-03-01T01:04:05.103Z,21.30
2023-03-01T01:06:36.845Z,21.92
2023-03-01T01:09:08.639Z,24.98
2023-03-01T01:11:38.741Z,26.95
2023-03-01T01:14:07.224Z,23.00
2023-03-01T01:16:35.462Z,28.17
2023-03-01T01:19:03.989Z,26.85
2023-03-01T01:21:32.716Z,23.00
2023-03-01T01:24:02.289Z,25.27
2023-03-01T01:26:33.974Z,24.75
2023-03-01T01:29:03.854Z,28.13
2023-03-01T01:31:32.486Z,24.98
2023-03-01T01:34:02.722Z,19.23
2023-03-01T01:36:31.633Z,21.67
2023-03-01T01:39:00.152Z,20.55
2023-03-01T01:41:30.408Z,26.25
2023-03-01T01:44:19.192Z,23.83
2023-03-01T01:46:51.771Z,24.95
2023-03-01T01:49:34.387Z,25.02
2023-03-01T01:52:09.948Z,21.98
2023-03-01T01:54:44.328Z,21.75
2023-03-01T01:57:18.994Z,20.20
2023-03-01T01:59:54.927Z,27.83
2023-03-01T02:02:24.116Z,23.08
2023-03-01T02:04:57.888Z,23.83
2023-03-01T02:07:27.327Z,22.80
2023-03-01T02:09:55.506Z,25.23
2023-03-01T02:12:27.255Z,24.95
2023-03-01T02:14:56.595Z,24.27
2023-03-01T02:17:25.198Z,25.27
2023-03-01T02:20:08.472Z,22.38
2023-03-01T02:22:39.622Z,28.38
2023-03-01T02:25:19.679Z,20.45
2023-03-01T02:27:56.343Z,29.27
2023-03-01T02:30:29.154Z,25.20
2023-03-01T02:33:03.677Z,22.77
2023-03-01T02:35:35.928Z,22.63
2023-03-01T02:38:05.508Z,22.92
2023-03-01T02:40:37.048Z,24.20
2023-03-01T02:43:10.318Z,24.17
2023-03-01T02:45:45.690Z,23.75
2023-03-01T02:48:13.587Z,24.30
2023-03-01T02:50:55.540Z,30.10
2023-03-01T02:53:30.908Z,25.70
2023-03-01T02:56:00.739Z,28.48
2023-03-01T02:58:29.033Z,24.88
2023-03-01T03:01:02.333Z,26.20
2023-03-01T03:03:30.437Z,25.42
2023-03-01T03:05:58.372Z,20.48
2023-03-01T03:08:26.842Z,24.48
2023-03-01T03:10:55.145Z,25.50
2023-03-01T03:13:23.382Z,20.33
2023-03-01T03:15:52.251Z,21.95
2023-03-01T03:18:21.718Z,22.85
2023-03-01T03:20:54.084Z,25.63
2023-03-01T03:23:23.249Z,21.55
2023-03-01T03:25:52.127Z,29.08
2023-03-01T03:28:21.120Z,24.30
2023-03-01T03:30:49.133Z,23.00
2023-03-01T03:33:17.154Z,25.92
2023-03-01T03:35:51.288Z,28.88
2023-03-01T03:38:22.925Z,26.17
2023-03-01T03:40:53.787Z,23.33
2023-03-01T03:43:24.014Z,24.20
2023-03-01T03:45:53.569Z,29.15
2023-03-01T03:48:23.053Z,24.50
2023-03-01T03:50:54.371Z,25.48
2023-03-01T03:53:24.412Z,28.33
2023-03-01T03:55:52.661Z,33.83
2023-03-01T03:58:22.838Z,24.20
2023-03-01T04:00:53.919Z,25.05
2023-03-01T04:03:23.054Z,24.55
2023-03-01T04:05:54.275Z,29.48
2023-03-01T04:08:23.812Z,25.30
2023-03-01T04:10:54.206Z,28.98
2023-03-01T04:13:23.908Z,29.90
2023-03-01T04:15:52.811Z,28.42
2023-03-01T04:18:23.316Z,26.60
2023-03-01T04:20:56.443Z,33.20
2023-03-01T04:23:27.828Z,33.53
2023-03-01T04:25:58.144Z,33.40
2023-03-01T04:28:28.917Z,29.25
2023-03-01T04:30:58.262Z,32.10
2023-03-01T04:33:27.450Z,27.23
2023-03-01T04:35:59.168Z,30.27
2023-03-01T04:38:27.983Z,28.73
2023-03-01T04:40:58.378Z,25.33
2023-03-01T04:43:26.865Z,27.63
2023-03-01T04:45:55.404Z,32.58
2023-03-01T04:48:24.044Z,34.10
2023-03-01T04:50:52.308Z,29.48
2023-03-01T04:53:21.957Z,35.25
2023-03-01T04:55:51.023Z,29.17
2023-03-01T04:58:19.401Z,28.90
2023-03-01T05:00:47.625Z,34.85
2023-03-01T05:03:19.788Z,29.70
2023-03-01T05:05:50.518Z,33.10
2023-03-01T05:08:19.563Z,32.35
2023-03-01T05:10:52.226Z,36.90
2023-03-01T05:13:22.974Z,31.58
2023-03-01T05:15:56.454Z,35.38
2023-03-01T05:18:27.029Z,44.17
2023-03-01T05:20:59.689Z,32.55
2023-03-01T05:23:27.909Z,33.40
2023-03-01T05:26:01.040Z,36.35
2023-03-01T05:28:29.542Z,31.13
2023-03-01T05:30:58.338Z,32.72
2023-03-01T05:33:27.530Z,33.83
2023-03-01T05:35:56.296Z,32.53
2023-03-01T05:38:24.494Z,32.75
2023-03-01T05:40:53.728Z,37.15
2023-03-01T05:43:23.292Z,34.70
2023-03-01T05:45:51.583Z,28.33
2023-03-01T05:48:22.202Z,32.97
2023-03-01T05:50:50.418Z,30.40
2023-03-01T05:53:22.641Z,36.63
2023-03-01T05:55:51.022Z,31.63
2023-03-01T05:58:21.147Z,38.00
2023-03-01T06:00:53.998Z,34.42
2023-03-01T06:03:23.154Z,49.42
2023-03-01T06:05:51.626Z,51.47
2023-03-01T06:08:21.857Z,45.38
2023-03-01T06:10:50.267Z,40.10
2023-03-01T06:13:18.705Z,41.83
2023-03-01T06:15:47.442Z,41.50
2023-03-01T06:18:17.078Z,30.33
2023-03-01T06:20:48.224Z,44.15
2023-03-01T06:23:16.568Z,43.00
2023-03-01T06:25:47.844Z,40.08
2023-03-01T06:28:17.029Z,36.55
2023-03-01T06:30:48.700Z,35.25
2023-03-01T06:33:21.533Z,32.45
2023-03-01T06:35:50.087Z,35.88
2023-03-01T06:38:20.186Z,41.55
2023-03-01T06:40:55.561Z,42.70
2023-03-01T06:43:24.746Z,44.45
2023-03-01T06:45:54.171Z,39.10
2023-03-01T06:48:24.981Z,40.10
2023-03-01T06:50:53.500Z,38.27
2023-03-01T06:53:23.158Z,38.57
2023-03-01T06:55:58.124Z,32.23
2023-03-01T06:58:28.549Z,33.57
2023-03-01T07:00:58.734Z,38.30
2023-03-01T07:05:58.666Z,29.60
2023-03-01T07:08:27.353Z,35.90
2023-03-01T07:10:58.839Z,28.20
2023-03-01T07:13:27.661Z,26.60
2023-03-01T07:15:58.953Z,30.00
2023-03-01T07:18:29.354Z,32.47
2023-03-01T07:20:57.545Z,30.67
2023-03-01T07:23:27.063Z,46.87
2023-03-01T07:25:56.149Z,37.43
2023-03-01T07:28:25.442Z,60.20
2023-03-01T07:30:55.790Z,42.30
2023-03-01T07:33:27.209Z,39.83
2023-03-01T07:36:00.357Z,31.67
2023-03-01T07:38:29.653Z,32.33
2023-03-01T07:41:01.510Z,38.47
2023-03-01T07:43:30.504Z,31.47
2023-03-01T07:46:02.265Z,26.13
2023-03-01T07:48:33.243Z,27.73
2023-03-01T07:51:03.876Z,31.20
2023-03-01T07:53:35.682Z,34.27
2023-03-01T07:56:06.595Z,32.50
2023-03-01T07:58:37.156Z,25.10
2023-03-01T08:01:06.440Z,27.67
2023-03-01T08:03:34.903Z,31.63
2023-03-01T08:06:06.292Z,30.27
2023-03-01T08:08:35.070Z,28.27
2023-03-01T08:11:05.464Z,26.47
2023-03-01T08:13:36.072Z,32.33
2023-03-01T08:16:05.452Z,30.60
2023-03-01T08:18:34.830Z,42.70
2023-03-01T08:21:11.069Z,25.30
2023-03-01T08:23:40.091Z,34.47
2023-03-01T08:26:12.256Z,24.80
2023-03-01T08:28:41.420Z,23.20
2023-03-01T08:31:22.121Z,29.07
2023-03-01T08:33:56.463Z,34.13
2023-03-01T08:36:28.465Z,33.17
2023-03-01T08:38:57.172Z,29.50
2023-03-01T08:41:25.826Z,25.37
2023-03-01T08:44:00.159Z,26.20
2023-03-01T08:46:29.635Z,33.93
2023-03-01T08:48:58.577Z,22.93
2023-03-01T08:51:30.861Z,30.40
2023-03-01T08:53:59.458Z,34.20
2023-03-01T08:56:28.249Z,27.30
2023-03-01T08:58:57.904Z,28.57
2023-03-01T09:01:26.393Z,25.20
2023-03-01T09:03:56.512Z,22.57
2023-03-01T09:06:25.697Z,22.70
2023-03-01T09:08:58.509Z,25.17
2023-03-01T09:11:30.444Z,22.93
2023-03-01T09:13:59.744Z,32.30
2023-03-01T09:16:28.707Z,31.33
2023-03-01T09:18:57.886Z,30.47
2023-03-01T09:21:39.482Z,25.60
2023-03-01T09:24:16.619Z,21.97
2023-03-01T09:26:48.884Z,20.47
2023-03-01T09:29:19.708Z,28.63
2023-03-01T09:31:48.797Z,33.97
2023-03-01T09:34:20.395Z,36.33
2023-03-01T09:36:48.762Z,34.77
2023-03-01T09:39:20.197Z,24.00
2023-03-01T09:41:57.300Z,29.03
2023-03-01T09:44:34.042Z,24.53
2023-03-01T09:47:04.103Z,44.47
2023-03-01T09:49:34.412Z,29.13
2023-03-01T09:52:10.150Z,28.73
2023-03-01T09:54:40.650Z,22.67
2023-03-01T09:57:20.865Z,25.17
2023-03-01T10:00:05.406Z,25.90
2023-03-01T10:02:42.173Z,19.50
2023-03-01T10:05:27.461Z,17.70
2023-03-01T10:08:09.675Z,29.80
2023-03-01T10:10:45.409Z,21.60
2023-03-01T10:13:20.269Z,21.63
2023-03-01T10:15:57.296Z,21.70
2023-03-01T10:18:29.270Z,21.70
2023-03-01T10:21:01.327Z,26.13
2023-03-01T10:23:34.321Z,32.37
2023-03-01T10:26:15.597Z,18.03
2023-03-01T10:28:55.534Z,17.37
2023-03-01T10:31:29.817Z,19.63
2023-03-01T10:34:00.603Z,20.43
2023-03-01T10:36:29.585Z,19.10
2023-03-01T10:38:59.603Z,21.50
2023-03-01T10:41:30.472Z,15.77
2023-03-01T10:44:01.346Z,24.37
2023-03-01T10:46:32.308Z,19.43
2023-03-01T10:49:16.690Z,29.07
2023-03-01T10:51:48.078Z,18.20
2023-03-01T10:54:22.093Z,17.83
2023-03-01T10:56:54.940Z,22.80
2023-03-01T10:59:29.771Z,24.17
2023-03-01T11:02:25.387Z,18.30
2023-03-01T11:05:16.203Z,20.07
2023-03-01T11:07:51.523Z,35.10
2023-03-01T11:10:21.699Z,21.00
2023-03-01T11:12:53.680Z,17.70
2023-03-01T11:15:28.507Z,19.57
2023-03-01T11:18:12.711Z,25.20
2023-03-01T11:20:43.228Z,21.20
2023-03-01T11:23:15.313Z,17.97
2023-03-01T11:25:46.581Z,20.30
2023-03-01T11:28:21.740Z,19.33
2023-03-01T11:31:07.707Z,22.30
2023-03-01T11:33:44.014Z,21.90
2023-03-01T11:36:22.435Z,21.90
2023-03-01T11:38:51.741Z,23.43
2023-03-01T11:41:23.698Z,24.60
2023-03-01T11:43:57.094Z,19.40
2023-03-01T11:47:02.587Z,21.90
2023-03-01T11:50:04.328Z,24.07
2023-03-01T11:52:47.228Z,22.00
2023-03-01T11:55:27.092Z,28.20
2023-03-01T11:58:17.606Z,20.40
2023-03-01T12:01:03.498Z,22.73
2023-03-01T12:03:43.778Z,20.83
2023-03-01T12:06:42.249Z,24.90
2023-03-01T12:09:27.726Z,18.50
2023-03-01T12:12:27.564Z,17.83
2023-03-01T12:15:21.983Z,19.00
2023-03-01T12:18:14.746Z,23.87
2023-03-01T12:20:50.620Z,18.43
2023-03-01T12:24:15.678Z,19.03
2023-03-01T12:26:54.629Z,19.50
2023-03-01T12:29:28.592Z,26.63
2023-03-01T12:32:21.788Z,23.33
2023-03-01T12:35:06.898Z,20.90
2023-03-01T12:37:49.396Z,20.67
2023-03-01T12:40:36.269Z,18.60
2023-03-01T12:43:27.110Z,21.80
2023-03-01T12:46:12.992Z,17.47
2023-03-01T12:48:51.984Z,18.90
2023-03-01T12:51:25.866Z,21.43
2023-03-01T12:53:57.287Z,20.47
2023-03-01T12:56:28.501Z,15.60
2023-03-01T12:59:10.541Z,18.00
2023-03-01T13:01:48.704Z,25.27
2023-03-01T13:04:38.546Z,20.73
2023-03-01T13:07:32.097Z,18.50
2023-03-01T13:10:17.973Z,16.90
2023-03-01T13:12:52.641Z,16.17
2023-03-01T13:15:32.408Z,21.03
2023-03-01T13:18:02.531Z,19.40
2023-03-01T13:20:36.369Z,17.10
2023-03-01T13:23:12.437Z,22.83
2023-03-01T13:26:03.207Z,24.00
2023-03-01T13:29:01.640Z,30.20
2023-03-01T13:32:06.085Z,20.10
2023-03-01T13:35:02.449Z,17.53
2023-03-01T13:37:36.466Z,22.00
2023-03-01T13:40:49.184Z,21.27
2023-03-01T13:43:32.470Z,23.07
2023-03-01T13:46:02.978Z,18.07
2023-03-01T13:48:33.842Z,16.43
2023-03-01T13:51:05.384Z,17.63
2023-03-01T13:53:38.925Z,19.90
2023-03-01T13:56:16.265Z,16.80
2023-03-01T13:58:52.014Z,22.50
2023-03-01T14:01:30.524Z,20.77
2023-03-01T14:03:59.970Z,18.40
2023-03-01T14:06:32.242Z,21.17
2023-03-01T14:09:07.130Z,22.80
2023-03-01T14:12:18.021Z,20.07
2023-03-01T14:15:00.790Z,19.97
2023-03-01T14:17:52.218Z,18.90
2023-03-01T14:20:23.353Z,18.77
2023-03-01T14:22:55.519Z,21.50
2023-03-01T14:25:27.214Z,27.93
2023-03-01T14:28:07.152Z,23.40
2023-03-01T14:30:40.059Z,30.47
2023-03-01T14:33:21.481Z,25.43
2023-03-01T14:35:57.379Z,19.33
2023-03-01T14:38:32.993Z,25.03
2023-03-01T14:41:06.709Z,19.47
2023-03-01T14:43:38.452Z,22.03
2023-03-01T14:46:06.797Z,20.10
2023-03-01T14:48:35.245Z,20.23
2023-03-01T14:51:07.522Z,31.70
2023-03-01T14:53:45.856Z,19.90
2023-03-01T14:56:20.397Z,24.67
2023-03-01T14:58:53.930Z,20.63
2023-03-01T15:01:23.255Z,31.03
2023-03-01T15:03:53.419Z,25.03
2023-03-01T15:06:25.049Z,29.10
2023-03-01T15:08:55.901Z,22.60
2023-03-01T15:11:27.018Z,25.07
2023-03-01T15:13:57.305Z,27.40
2023-03-01T15:16:29.043Z,23.17
2023-03-01T15:19:00.121Z,26.43
2023-03-01T15:21:34.049Z,26.80
2023-03-01T15:24:12.635Z,22.60
2023-03-01T15:26:45.051Z,32.90
2023-03-01T15:29:20.493Z,31.30
2023-03-01T15:31:57.960Z,37.37
2023-03-01T15:34:28.029Z,30.13
2023-03-01T15:36:59.638Z,24.60
2023-03-01T15:39:45.977Z,32.80
2023-03-01T15:42:18.198Z,31.50
2023-03-01T15:44:48.119Z,34.50
2023-03-01T15:47:30.313Z,38.27
2023-03-01T15:50:00.935Z,30.00
2023-03-01T15:52:32.664Z,30.07
2023-03-01T15:55:04.057Z,36.30
2023-03-01T15:57:33.251Z,35.10
2023-03-01T16:00:05.821Z,34.47
2023-03-01T16:02:34.995Z,30.67
2023-03-01T16:05:04.462Z,36.07
2023-03-01T16:07:33.435Z,31.87
2023-03-01T16:10:02.305Z,33.30
2023-03-01T16:12:30.457Z,30.40
2023-03-01T16:14:58.820Z,28.90
2023-03-01T16:17:29.200Z,33.70
2023-03-01T16:19:57.468Z,28.80
2023-03-01T16:22:28.395Z,35.10
2023-03-01T16:24:57.681Z,33.70
2023-03-01T16:27:26.714Z,38.57
2023-03-01T16:29:55.750Z,29.37
2023-03-01T16:32:24.711Z,38.17
2023-03-01T16:34:54.706Z,37.03
2023-03-01T16:37:23.279Z,31.30
2023-03-01T16:39:52.874Z,34.13
2023-03-01T16:42:21.588Z,41.17
2023-03-01T16:44:50.439Z,28.90
2023-03-01T16:47:19.250Z,30.70
2023-03-01T16:49:47.730Z,36.20
2023-03-01T16:52:17.592Z,31.33
2023-03-01T16:54:46.654Z,28.57
2023-03-01T16:57:15.118Z,37.37
2023-03-01T16:59:43.605Z,32.60
2023-03-01T17:02:14.157Z,29.67
2023-03-01T17:04:42.682Z,37.83
2023-03-01T17:07:11.205Z,31.37
2023-03-01T17:09:41.122Z,35.43
2023-03-01T17:12:10.002Z,35.93
2023-03-01T17:14:39.371Z,42.50
2023-03-01T17:17:08.098Z,34.60
2023-03-01T17:19:40.885Z,38.13
2023-03-01T17:22:10.492Z,34.87
2023-03-01T17:24:41.919Z,33.60
2023-03-01T17:27:12.567Z,40.73
2023-03-01T17:29:41.848Z,33.80
2023-03-01T17:32:11.650Z,32.53
2023-03-01T17:34:43.327Z,41.40
2023-03-01T17:37:11.759Z,34.57
2023-03-01T17:39:42.142Z,33.53
2023-03-01T17:42:10.420Z,33.30
2023-03-01T17:44:39.113Z,40.23
2023-03-01T17:47:08.307Z,39.30
2023-03-01T17:49:37.197Z,39.40
2023-03-01T17:52:05.930Z,33.50
2023-03-01T17:54:35.497Z,37.97
2023-03-01T17:57:05.968Z,30.27
2023-03-01T17:59:37.673Z,28.83
2023-03-01T18:02:06.507Z,36.17
2023-03-01T18:04:35.232Z,37.80
2023-03-01T18:07:03.908Z,38.93
2023-03-01T18:09:32.370Z,34.73
2023-03-01T18:12:00.787Z,35.73
2023-03-01T18:14:34.391Z,36.17
2023-03-01T18:17:06.333Z,33.37
2023-03-01T18:19:35.153Z,34.33
2023-03-01T18:22:03.522Z,36.43
2023-03-01T18:24:31.854Z,30.87
2023-03-01T18:27:00.492Z,39.40
2023-03-01T18:29:30.213Z,29.47
2023-03-01T18:31:59.222Z,32.07
2023-03-01T18:34:30.678Z,31.97
2023-03-01T18:37:09.434Z,35.10
2023-03-01T18:39:39.188Z,27.70
2023-03-01T18:42:07.858Z,38.33
2023-03-01T18:44:38.622Z,35.20
2023-03-01T18:47:07.573Z,32.60
2023-03-01T18:49:37.802Z,44.43
2023-03-01T18:52:06.512Z,40.97
2023-03-01T18:54:36.550Z,42.37
2023-03-01T18:57:05.327Z,40.50
2023-03-01T18:59:35.218Z,37.17
2023-03-01T19:02:05.692Z,37.10
2023-03-01T19:04:34.012Z,38.30
2023-03-01T19:07:03.080Z,43.10
2023-03-01T19:09:32.824Z,43.57
2023-03-01T19:12:03.555Z,61.53
2023-03-01T19:14:31.712Z,47.37
2023-03-01T19:17:00.646Z,50.10
2023-03-01T19:19:30.448Z,43.77
2023-03-01T19:22:05.802Z,48.53
2023-03-01T19:24:35.532Z,50.73
2023-03-01T19:27:04.076Z,47.93
2023-03-01T19:29:32.775Z,56.37
2023-03-01T19:32:01.778Z,55.20
2023-03-01T19:34:31.990Z,52.33
2023-03-01T19:37:00.697Z,52.57
2023-03-01T19:39:29.933Z,46.37
2023-03-01T19:41:58.917Z,52.90
2023-03-01T19:44:28.781Z,43.83
2023-03-01T19:46:58.612Z,46.43
2023-03-01T19:49:30.351Z,48.88
2023-03-01T19:52:00.140Z,48.20
2023-03-01T19:54:28.476Z,39.03
2023-03-01T19:56:57.657Z,49.38
2023-03-01T19:59:27.802Z,40.65
2023-03-01T20:01:57.520Z,44.37
2023-03-01T20:04:26.152Z,47.60
2023-03-01T20:06:54.549Z,49.00
2023-03-01T20:09:25.285Z,51.47
2023-03-01T20:11:54.305Z,41.67
2023-03-01T20:14:24.227Z,51.92
2023-03-01T20:16:54.102Z,42.70
2023-03-01T20:19:22.957Z,50.65
2023-03-01T20:21:51.614Z,45.47
2023-03-01T20:24:21.579Z,46.38
2023-03-01T20:26:51.501Z,40.88
2023-03-01T20:29:20.286Z,40.83
2023-03-01T20:31:49.318Z,36.83
2023-03-01T20:34:18.131Z,39.40
2023-03-01T20:36:50.236Z,38.70
2023-03-01T20:39:19.191Z,54.95
2023-03-01T20:41:47.762Z,51.92
2023-03-01T20:44:18.514Z,45.47
2023-03-01T20:46:46.711Z,42.85
2023-03-01T20:49:14.826Z,37.50
2023-03-01T20:51:47.008Z,33.45
2023-03-01T20:54:16.006Z,39.35
2023-03-01T20:56:44.277Z,43.88
2023-03-01T20:59:14.663Z,47.08
2023-03-01T21:01:44.266Z,39.20
2023-03-01T21:04:13.253Z,39.33
2023-03-01T21:06:43.629Z,45.20
2023-03-01T21:09:12.148Z,38.67
2023-03-01T21:11:40.704Z,43.00
2023-03-01T21:14:13.052Z,40.75
2023-03-01T21:16:41.534Z,42.83
2023-03-01T21:19:11.315Z,41.88
2023-03-01T21:21:40.037Z,45.95
2023-03-01T21:24:10.247Z,39.17
2023-03-01T21:26:39.353Z,42.20
2023-03-01T21:29:08.135Z,39.50
2023-03-01T21:31:36.767Z,38.92
2023-03-01T21:34:07.852Z,44.25
2023-03-01T21:36:38.354Z,42.22
2023-03-01T21:39:08.273Z,45.05
2023-03-01T21:41:41.038Z,49.78
2023-03-01T21:44:09.578Z,42.70
2023-03-01T21:46:39.709Z,37.00
2023-03-01T21:49:09.748Z,40.45
2023-03-01T21:51:39.728Z,45.40
2023-03-01T21:54:12.403Z,36.78
2023-03-01T21:56:41.851Z,42.25
2023-03-01T21:59:13.657Z,38.22
2023-03-01T22:01:42.204Z,40.17
2023-03-01T22:04:10.986Z,36.75
2023-03-01T22:06:43.318Z,41.72
2023-03-01T22:09:14.273Z,39.00
2023-03-01T22:11:44.586Z,40.45
2023-03-01T22:14:14.036Z,31.88
2023-03-01T22:16:45.104Z,35.42
2023-03-01T22:19:15.550Z,31.98
2023-03-01T22:21:47.704Z,34.60
2023-03-01T22:24:16.113Z,32.17
2023-03-01T22:26:45.588Z,38.47
2023-03-01T22:29:16.896Z,37.40
2023-03-01T22:31:45.758Z,38.10
2023-03-01T22:34:17.624Z,36.65
2023-03-01T22:36:47.731Z,40.85
2023-03-01T22:39:20.262Z,38.72
2023-03-01T22:41:49.844Z,38.17
2023-03-01T22:44:24.838Z,35.47
2023-03-01T22:46:53.644Z,34.97
2023-03-01T22:49:23.341Z,35.75
2023-03-01T22:51:53.399Z,38.42
2023-03-01T22:54:22.015Z,34.92
2023-03-01T22:56:51.604Z,38.70
2023-03-01T22:59:23.075Z,33.25
2023-03-01T23:01:53.748Z,40.03
2023-03-01T23:04:25.197Z,34.85
2023-03-01T23:06:56.083Z,39.15
2023-03-01T23:09:26.481Z,39.22
2023-03-01T23:11:55.783Z,37.90
2023-03-01T23:14:25.144Z,44.65
2023-03-01T23:16:54.043Z,43.17
2023-03-01T23:19:22.812Z,42.90
2023-03-01T23:21:51.659Z,38.90
2023-03-01T23:24:23.732Z,45.22
2023-03-01T23:26:54.027Z,48.70
2023-03-01T23:29:22.965Z,37.58
2023-03-01T23:31:51.454Z,42.97
2023-03-01T23:34:21.474Z,41.40
2023-03-01T23:36:52.582Z,43.58
2023-03-01T23:39:23.699Z,39.40
2023-03-01T23:41:52.388Z,39.33
2023-03-01T23:44:23.084Z,39.10
2023-03-01T23:46:52.318Z,35.55
2023-03-01T23:49:22.413Z,34.30
2023-03-01T23:51:55.350Z,33.28
2023-03-01T23:54:26.975Z,45.97
2023-03-01T23:56:55.655Z,38.03
2023-03-01T23:59:25.898Z,41.85
